Time;durP1;ratioP1;P1;durP2;ratioP2;P2;SDS_P1;SDS_P2;PMS_P1;PMS_P2;Temp;Humidity;BMP_temperature;BMP_pressure;BME280_temperature;BME280_humidity;BME280_pressure;Samples;Min_cycle;Max_cycle;Signal;HPM_P1;HPM_P2
2024/01/23 00:01:00;;;;;;;19.95;4.68;;;;;;;6.95;100.00;101634.91;5048907;28;20021;-90
2024/01/23 00:03:26;;;;;;;21.92;4.95;;;;;;;6.96;100.00;101639.22;5050583;28;20061;-89
2024/01/23 00:05:54;;;;;;;19.77;5.28;;;;;;;6.93;100.00;101661.16;5049208;28;20052;-90
2024/01/23 00:08:19;;;;;;;21.13;4.28;;;;;;;6.89;100.00;101670.91;5051250;28;20033;-90
2024/01/23 00:10:45;;;;;;;17.67;3.85;;;;;;;6.86;100.00;101671.06;5034941;28;20162;-90
2024/01/23 00:13:10;;;;;;;17.70;4.35;;;;;;;6.85;100.00;101666.75;5050118;28;20024;-89
2024/01/23 00:15:39;;;;;;;19.58;4.85;;;;;;;6.86;100.00;101673.66;5051743;28;20040;-90
2024/01/23 00:18:06;;;;;;;17.58;4.40;;;;;;;6.89;100.00;101691.00;5046288;28;20026;-89
2024/01/23 00:20:31;;;;;;;17.17;4.57;;;;;;;6.88;100.00;101695.38;5051825;28;20713;-90
2024/01/23 00:22:57;;;;;;;17.83;4.38;;;;;;;6.88;100.00;101699.75;5051395;28;20059;-89
2024/01/23 00:25:25;;;;;;;20.73;5.03;;;;;;;6.89;100.00;101691.84;5046963;28;20124;-89
2024/01/23 00:27:51;;;;;;;23.48;5.03;;;;;;;6.91;100.00;101694.38;5049821;28;20448;-88
2024/01/23 00:30:19;;;;;;;23.48;5.05;;;;;;;6.92;100.00;101701.31;5051400;28;20029;-89
2024/01/23 00:32:45;;;;;;;20.63;4.90;;;;;;;6.95;100.00;101702.94;5051100;28;20033;-89
2024/01/23 00:35:10;;;;;;;25.30;5.28;;;;;;;6.93;100.00;101703.00;5051051;28;20040;-90
2024/01/23 00:37:35;;;;;;;18.58;4.32;;;;;;;6.95;100.00;101710.78;5050109;28;20024;-90
2024/01/23 00:40:03;;;;;;;18.35;4.85;;;;;;;6.93;100.00;101712.63;5049658;28;20481;-90
2024/01/23 00:42:28;;;;;;;18.67;4.95;;;;;;;6.93;100.00;101723.09;5049758;28;20025;-89
2024/01/23 00:44:53;;;;;;;20.75;4.85;;;;;;;6.96;100.00;101730.78;5041554;28;20377;-91
2024/01/23 00:47:20;;;;;;;20.70;4.55;;;;;;;6.98;100.00;101727.19;5037947;28;20083;-90
2024/01/23 00:49:45;;;;;;;20.65;4.97;;;;;;;6.96;100.00;101738.66;5046124;28;20082;-90
2024/01/23 00:52:11;;;;;;;20.50;4.60;;;;;;;6.96;100.00;101738.66;5049392;28;20552;-90
2024/01/23 00:54:37;;;;;;;22.50;5.28;;;;;;;6.95;100.00;101736.94;5031624;28;20037;-90
2024/01/23 00:57:05;;;;;;;18.67;4.43;;;;;;;6.89;100.00;101731.06;5045074;28;20028;-90
2024/01/23 00:59:31;;;;;;;20.40;4.80;;;;;;;6.89;100.00;101738.94;5050467;28;20028;-91
2024/01/23 01:01:58;;;;;;;21.42;5.05;;;;;;;6.84;100.00;101751.34;5050028;28;20028;-90
2024/01/23 01:04:23;;;;;;;21.08;4.60;;;;;;;6.80;100.00;101754.16;5028348;28;20108;-90
2024/01/23 01:06:49;;;;;;;23.35;4.28;;;;;;;6.75;100.00;101756.97;5029796;28;20025;-90
2024/01/23 01:09:14;;;;;;;17.38;4.40;;;;;;;6.71;100.00;101744.09;5031138;28;20021;-90
2024/01/23 01:11:39;;;;;;;17.65;4.18;;;;;;;6.64;100.00;101753.97;5030250;28;20412;-90
2024/01/23 01:14:05;;;;;;;18.60;4.40;;;;;;;6.60;100.00;101778.56;5044776;28;20035;-90
2024/01/23 01:16:32;;;;;;;20.48;4.65;;;;;;;6.57;100.00;101758.63;5050509;28;20474;-89
2024/01/23 01:19:00;;;;;;;21.02;4.88;;;;;;;6.54;100.00;101777.06;5049001;28;20514;-90
2024/01/23 01:21:26;;;;;;;19.58;4.80;;;;;;;6.50;100.00;101787.72;5047161;28;20031;-90
2024/01/23 01:23:52;;;;;;;19.23;4.40;;;;;;;6.45;100.00;101805.34;5033135;28;20041;-90
2024/01/23 01:26:17;;;;;;;24.05;4.88;;;;;;;6.44;100.00;101799.28;5050360;28;20391;-89
2024/01/23 01:28:43;;;;;;;21.42;4.28;;;;;;;6.42;100.00;101805.47;5048710;28;20021;-90
2024/01/23 01:31:09;;;;;;;22.60;5.05;;;;;;;6.40;100.00;101817.72;5045539;28;20041;-91
2024/01/23 01:33:35;;;;;;;25.20;4.72;;;;;;;6.33;100.00;101824.13;5049671;28;20496;-90
2024/01/23 01:36:03;;;;;;;23.27;4.82;;;;;;;6.29;100.00;101813.81;5026035;28;20033;-90
2024/01/23 01:38:29;;;;;;;22.35;4.82;;;;;;;6.29;100.00;101815.56;5044540;28;20025;-90
2024/01/23 01:40:57;;;;;;;22.02;4.82;;;;;;;6.27;100.00;101818.25;5037849;28;20043;-90
2024/01/23 01:43:27;;;;;;;24.42;5.13;;;;;;;6.24;100.00;101823.59;5030462;28;20052;-89
2024/01/23 01:46:29;;;;;;;21.88;4.95;;;;;;;6.27;100.00;101830.47;5026469;28;20032;-89
2024/01/23 01:48:55;;;;;;;21.55;5.32;;;;;;;6.23;100.00;101821.91;5032186;28;20029;-90
2024/01/23 01:51:24;;;;;;;19.42;4.90;;;;;;;6.21;100.00;101836.78;5046711;28;20136;-90
2024/01/23 01:53:49;;;;;;;23.08;5.32;;;;;;;6.20;100.00;101835.09;5028373;28;20104;-89
2024/01/23 01:56:17;;;;;;;18.50;4.97;;;;;;;6.18;100.00;101823.00;5046668;28;20109;-89
2024/01/23 01:58:44;;;;;;;19.77;4.80;;;;;;;6.16;100.00;101830.91;5048663;28;20048;-90
2024/01/23 02:01:12;;;;;;;22.90;4.78;;;;;;;6.17;100.00;101863.09;5022895;28;20156;-90
2024/01/23 02:03:38;;;;;;;21.67;5.03;;;;;;;6.16;100.00;101870.09;5035733;28;20063;-89
2024/01/23 02:06:04;;;;;;;19.52;4.63;;;;;;;6.14;100.00;101874.53;5045405;28;20064;-89
2024/01/23 02:08:30;;;;;;;17.83;4.55;;;;;;;6.07;100.00;101867.84;5049131;28;20032;-89
2024/01/23 02:10:56;;;;;;;25.02;5.00;;;;;;;6.07;100.00;101887.88;5042666;28;20076;-90
2024/01/23 02:13:26;;;;;;;18.58;4.70;;;;;;;6.00;100.00;101889.84;5046943;28;20512;-89
2024/01/23 02:15:57;;;;;;;20.75;5.03;;;;;;;5.98;100.00;101902.13;5031076;28;20052;-90
2024/01/23 02:18:23;;;;;;;18.30;4.55;;;;;;;6.00;100.00;101902.91;5029862;28;20017;-90
2024/01/23 02:20:48;;;;;;;20.77;5.32;;;;;;;6.03;100.00;101895.00;5049484;28;20029;-90
2024/01/23 02:23:18;;;;;;;19.35;4.80;;;;;;;6.04;100.00;101888.00;5030757;28;20111;-90
2024/01/23 02:25:44;;;;;;;24.27;4.90;;;;;;;6.02;100.00;101895.91;5048675;28;20063;-90
2024/01/23 02:28:21;;;;;;;21.90;4.90;;;;;;;5.97;100.00;101903.03;5027380;28;20022;-90
2024/01/23 02:30:46;;;;;;;24.60;5.43;;;;;;;5.97;100.00;101905.66;5015167;28;20032;-90
2024/01/23 02:33:12;;;;;;;19.77;4.88;;;;;;;5.94;100.00;101913.59;5049403;28;20025;-90
2024/01/23 02:35:42;;;;;;;18.67;4.70;;;;;;;5.90;100.00;101922.47;5031137;28;20044;-89
2024/01/23 02:38:13;;;;;;;19.27;4.70;;;;;;;5.88;100.00;101925.09;5047876;28;20056;-90
2024/01/23 02:40:38;;;;;;;22.67;5.20;;;;;;;5.84;100.00;101933.97;5049134;28;20094;-90
2024/01/23 02:43:04;;;;;;;25.42;4.82;;;;;;;5.84;100.00;101933.13;5047896;28;20028;-90
2024/01/23 02:45:43;;;;;;;20.92;4.88;;;;;;;5.80;100.00;101955.03;5029817;28;20116;-89
2024/01/23 02:48:09;;;;;;;27.65;6.55;;;;;;;5.78;100.00;101954.22;5048373;28;20087;-89
2024/01/23 02:50:40;;;;;;;24.77;5.30;;;;;;;5.79;100.00;101948.09;4998465;28;1265040;-90
2024/01/23 02:53:06;;;;;;;22.38;5.47;;;;;;;5.77;100.00;101957.75;5031674;28;20120;-90
2024/01/23 02:55:32;;;;;;;22.95;5.50;;;;;;;5.72;100.00;101949.22;5031191;28;20029;-90
2024/01/23 02:57:57;;;;;;;18.60;4.47;;;;;;;5.70;100.00;101951.06;5048238;28;20029;-90
2024/01/23 03:00:23;;;;;;;23.23;5.28;;;;;;;5.68;100.00;101969.38;5049515;28;20392;-90
2024/01/23 03:02:48;;;;;;;26.95;5.63;;;;;;;5.69;100.00;101970.25;5047622;28;20043;-90
2024/01/23 03:05:14;;;;;;;22.08;5.07;;;;;;;5.68;100.00;101992.88;5030511;28;20032;-90
2024/01/23 03:07:39;;;;;;;27.50;5.68;;;;;;;5.69;100.00;101985.91;5031292;28;20043;-90
2024/01/23 03:10:07;;;;;;;19.70;5.03;;;;;;;5.71;100.00;101994.53;5048862;28;20028;-90
2024/01/23 03:12:32;;;;;;;25.27;5.28;;;;;;;5.73;100.00;101990.09;5046858;28;20060;-88
2024/01/23 03:14:57;;;;;;;27.13;5.72;;;;;;;5.74;100.00;101989.19;5031371;28;20233;-91
2024/01/23 03:17:23;;;;;;;27.98;5.80;;;;;;;5.80;100.00;101999.41;5049015;28;20020;-90
2024/01/23 03:19:48;;;;;;;26.38;5.80;;;;;;;5.75;100.00;102007.41;5045216;28;20106;-90
2024/01/23 03:22:14;;;;;;;24.52;5.55;;;;;;;5.76;100.00;102008.28;5047744;28;20091;-91
2024/01/23 03:24:40;;;;;;;24.98;5.45;;;;;;;5.75;100.00;102030.06;5047328;28;20051;-91
2024/01/23 03:27:06;;;;;;;23.73;5.28;;;;;;;5.71;100.00;102036.31;5047212;28;20441;-90
2024/01/23 03:29:43;;;;;;;22.70;5.15;;;;;;;5.71;100.00;102041.53;5047112;28;20477;-90
2024/01/23 03:32:09;;;;;;;25.80;5.10;;;;;;;5.65;100.00;102038.22;5047377;28;20032;-90
2024/01/23 03:34:35;;;;;;;23.90;5.95;;;;;;;5.62;100.00;102035.72;5031530;28;20021;-90
2024/01/23 03:37:01;;;;;;;30.23;6.30;;;;;;;5.60;100.00;102032.31;5040797;28;20496;-90
2024/01/23 03:39:27;;;;;;;29.30;5.22;;;;;;;5.59;100.00;102041.03;5029684;28;20029;-90
2024/01/23 03:41:52;;;;;;;21.63;5.13;;;;;;;5.54;100.00;102029.03;5029284;28;20035;-90
2024/01/23 03:44:18;;;;;;;21.98;4.90;;;;;;;5.53;100.00;102027.34;5048526;28;20413;-89
2024/01/23 03:46:43;;;;;;;27.58;5.60;;;;;;;5.48;100.00;102040.53;5031606;28;20114;-89
2024/01/23 03:49:09;;;;;;;28.35;6.03;;;;;;;5.42;100.00;102040.75;5047641;28;20033;-88
2024/01/23 03:51:35;;;;;;;25.95;6.22;;;;;;;5.41;100.00;102044.25;5049101;28;20064;-89
2024/01/23 03:54:00;;;;;;;27.67;5.68;;;;;;;5.38;100.00;102053.94;5048325;28;20053;-89
2024/01/23 03:56:26;;;;;;;24.27;5.78;;;;;;;5.31;100.00;102053.31;5026084;28;20037;-88
2024/01/23 03:58:51;;;;;;;21.83;5.30;;;;;;;5.30;100.00;102069.88;5048221;28;20040;-88
2024/01/23 04:01:17;;;;;;;22.55;5.05;;;;;;;5.28;100.00;102079.50;5039927;28;20037;-90
2024/01/23 04:03:42;;;;;;;18.45;5.07;;;;;;;5.27;100.00;102078.66;5042298;28;20103;-89
2024/01/23 04:06:08;;;;;;;31.10;6.43;;;;;;;5.26;100.00;102083.91;5047979;28;20378;-90
2024/01/23 04:08:33;;;;;;;25.67;5.18;;;;;;;5.24;100.00;102088.34;5049071;28;20029;-89
2024/01/23 04:10:59;;;;;;;29.77;6.47;;;;;;;5.20;100.00;102091.91;5031684;28;20080;-90
2024/01/23 04:13:24;;;;;;;25.40;5.50;;;;;;;5.17;100.00;102092.00;5053564;28;20029;-89
2024/01/23 04:15:50;;;;;;;26.55;6.03;;;;;;;5.14;100.00;102086.88;5031059;28;20749;-88
2024/01/23 04:18:16;;;;;;;25.48;5.50;;;;;;;5.13;100.00;102088.66;5040127;28;20037;-89
2024/01/23 04:20:41;;;;;;;25.17;6.30;;;;;;;5.12;100.00;102089.53;5049598;28;20029;-89
2024/01/23 04:23:06;;;;;;;25.15;5.22;;;;;;;5.08;100.00;102087.94;5050442;28;20428;-89
2024/01/23 04:25:32;;;;;;;27.42;6.20;;;;;;;5.06;100.00;102094.09;5053522;28;20100;-91
2024/01/23 04:28:13;;;;;;;26.65;6.28;;;;;;;5.02;100.00;102096.81;5049037;28;20025;-90
2024/01/23 04:30:38;;;;;;;31.63;6.38;;;;;;;5.00;100.00;102096.00;5048373;28;20032;-89
2024/01/23 04:33:10;;;;;;;27.63;5.40;;;;;;;4.97;100.00;102116.97;5034212;28;20386;-89
2024/01/23 04:35:36;;;;;;;28.85;5.68;;;;;;;4.96;100.00;102124.84;5051729;28;20049;-89
2024/01/23 04:38:02;;;;;;;24.05;5.82;;;;;;;4.94;100.00;102129.25;5040647;28;20512;-88
2024/01/23 04:40:28;;;;;;;22.02;5.97;;;;;;;4.90;100.00;102138.91;5056366;28;20031;-88
2024/01/23 04:42:53;;;;;;;27.20;5.68;;;;;;;4.92;100.00;102147.56;5053293;28;20099;-88
2024/01/23 04:45:19;;;;;;;25.73;5.50;;;;;;;4.90;100.00;102156.31;5028952;28;20116;-89
2024/01/23 04:47:45;;;;;;;24.48;5.75;;;;;;;4.89;100.00;102165.03;5028277;28;20045;-89
2024/01/23 04:50:10;;;;;;;26.35;5.65;;;;;;;4.86;100.00;102171.22;5044077;28;20058;-89
2024/01/23 04:52:38;;;;;;;25.15;5.28;;;;;;;4.84;100.00;102183.44;5029388;28;20076;-89
2024/01/23 04:55:10;;;;;;;30.00;5.82;;;;;;;4.83;100.00;102194.75;5038721;28;20042;-89
2024/01/23 04:57:35;;;;;;;22.52;5.63;;;;;;;4.83;100.00;102193.91;5017995;28;20025;-89
2024/01/23 05:00:09;;;;;;;27.63;6.30;;;;;;;4.81;100.00;102187.88;5028990;28;20032;-89
2024/01/23 05:02:35;;;;;;;24.15;5.90;;;;;;;4.76;100.00;102187.97;5014376;28;20109;-90
2024/01/23 05:05:01;;;;;;;27.55;5.47;;;;;;;4.78;100.00;102185.34;5021408;28;20041;-90
2024/01/23 05:07:27;;;;;;;25.25;6.25;;;;;;;4.75;100.00;102194.09;5033154;28;20053;-90
2024/01/23 05:09:54;;;;;;;27.60;6.30;;;;;;;4.71;100.00;102195.94;5031494;28;20358;-89
2024/01/23 05:12:19;;;;;;;26.48;5.80;;;;;;;4.71;100.00;102215.94;5030139;28;20429;-90
2024/01/23 05:14:44;;;;;;;29.42;6.47;;;;;;;4.68;100.00;102224.69;5029914;28;20024;-89
2024/01/23 05:17:13;;;;;;;27.52;6.10;;;;;;;4.63;100.00;102230.94;5030068;28;20434;-90
2024/01/23 05:19:39;;;;;;;28.40;5.82;;;;;;;4.63;100.00;102236.16;5014247;28;20359;-89
2024/01/23 05:22:04;;;;;;;24.42;5.60;;;;;;;4.57;100.00;102231.09;5017136;28;20029;-90
2024/01/23 05:24:29;;;;;;;28.25;6.32;;;;;;;4.56;100.00;102222.44;5031219;28;20035;-90
2024/01/23 05:26:55;;;;;;;30.13;6.38;;;;;;;4.55;100.00;102230.31;5030453;28;20053;-90
2024/01/23 05:29:21;;;;;;;25.38;5.55;;;;;;;4.56;100.00;102234.63;5042619;28;20036;-90
2024/01/23 05:31:47;;;;;;;27.13;5.80;;;;;;;4.53;100.00;102247.72;5031489;28;20056;-90
2024/01/23 05:34:15;;;;;;;24.42;5.75;;;;;;;4.52;100.00;102244.28;5028847;28;20060;-90
2024/01/23 05:36:41;;;;;;;29.65;6.18;;;;;;;4.52;100.00;102248.63;5014687;28;20038;-90
2024/01/23 05:39:09;;;;;;;26.65;5.82;;;;;;;4.49;100.00;102259.13;5013987;28;20049;-90
2024/01/23 05:41:34;;;;;;;28.65;5.75;;;;;;;4.46;100.00;102257.47;5012085;28;20022;-90
2024/01/23 05:44:06;;;;;;;26.40;5.40;;;;;;;4.49;100.00;102259.13;5015349;28;20080;-91
2024/01/23 05:46:33;;;;;;;25.00;5.53;;;;;;;4.49;100.00;102269.56;5012942;28;20022;-90
2024/01/23 05:49:02;;;;;;;29.33;6.00;;;;;;;4.51;100.00;102272.97;5027973;28;20026;-90
2024/01/23 05:51:28;;;;;;;28.52;5.82;;;;;;;4.49;100.00;102282.59;5025348;28;20042;-90
2024/01/23 05:53:53;;;;;;;29.27;6.10;;;;;;;4.50;100.00;102284.28;5026949;28;20091;-90
2024/01/23 05:56:18;;;;;;;25.70;6.00;;;;;;;4.48;100.00;102283.47;5004156;28;20368;-91
2024/01/23 05:58:44;;;;;;;24.63;5.53;;;;;;;4.51;100.00;102296.44;5011402;28;20188;-90
2024/01/23 06:01:09;;;;;;;26.98;6.20;;;;;;;4.51;100.00;102299.03;5004527;28;20022;-90
2024/01/23 06:03:34;;;;;;;27.92;5.82;;;;;;;4.50;100.00;102303.41;5001328;28;20487;-90
2024/01/23 06:06:00;;;;;;;26.00;5.55;;;;;;;4.51;100.00;102304.25;5012658;28;20104;-90
2024/01/23 06:08:25;;;;;;;32.63;6.25;;;;;;;4.53;100.00;102307.66;5007303;28;20042;-91
2024/01/23 06:10:53;;;;;;;28.55;5.90;;;;;;;4.49;100.00;102312.09;5009386;28;20045;-90
2024/01/23 06:13:19;;;;;;;30.45;6.47;;;;;;;4.53;100.00;102312.88;5010333;28;20029;-91
2024/01/23 06:15:45;;;;;;;29.25;6.30;;;;;;;4.52;100.00;102312.03;5008578;28;20034;-88
2024/01/23 06:18:10;;;;;;;25.85;5.70;;;;;;;4.54;100.00;102314.59;5011742;28;20101;-89
2024/01/23 06:20:39;;;;;;;27.23;6.10;;;;;;;4.55;100.00;102322.38;5012613;28;20120;-89
2024/01/23 06:23:05;;;;;;;27.75;5.82;;;;;;;4.55;100.00;102316.31;5009029;28;20026;-89
2024/01/23 06:25:30;;;;;;;32.03;6.28;;;;;;;4.54;100.00;102317.19;5013085;28;20046;-89
2024/01/23 06:27:56;;;;;;;34.53;6.05;;;;;;;4.57;100.00;102319.72;5012380;28;20429;-90
2024/01/23 06:30:21;;;;;;;31.08;7.15;;;;;;;4.56;100.00;102328.44;5011008;28;20035;-90
2024/01/23 06:32:50;;;;;;;27.13;5.93;;;;;;;4.52;100.00;102330.28;5014251;28;20017;-89
2024/01/23 06:35:16;;;;;;;27.40;6.07;;;;;;;4.51;100.00;102328.56;5013439;28;20109;-89
2024/01/23 06:37:42;;;;;;;29.67;6.05;;;;;;;4.50;100.00;102329.47;5008768;28;20059;-90
2024/01/23 06:40:09;;;;;;;30.35;6.85;;;;;;;4.50;100.00;102344.25;5005773;28;20344;-90
2024/01/23 06:42:35;;;;;;;27.42;6.15;;;;;;;4.51;100.00;102345.94;5007265;28;20061;-89
2024/01/23 06:45:00;;;;;;;24.48;5.47;;;;;;;4.50;100.00;102349.44;5008892;28;20053;-89
2024/01/23 06:47:26;;;;;;;28.38;6.25;;;;;;;4.50;100.00;102345.09;5002893;28;20631;-89
2024/01/23 06:49:54;;;;;;;27.48;6.22;;;;;;;4.47;100.00;102360.81;5013207;28;20034;-90
2024/01/23 06:52:20;;;;;;;27.88;6.10;;;;;;;4.45;100.00;102362.59;5029765;28;20051;-89
2024/01/23 06:54:45;;;;;;;29.20;6.55;;;;;;;4.44;100.00;102358.28;5042850;28;20071;-90
2024/01/23 06:57:11;;;;;;;29.38;6.03;;;;;;;4.43;100.00;102364.38;5041806;28;20413;-90
2024/01/23 06:59:37;;;;;;;26.20;6.03;;;;;;;4.40;100.00;102369.63;5023248;28;20033;-89
2024/01/23 07:02:04;;;;;;;25.95;5.70;;;;;;;4.40;100.00;102374.84;5053434;28;20162;-89
2024/01/23 07:04:30;;;;;;;24.67;6.10;;;;;;;4.37;100.00;102372.31;5050177;28;20025;-89
2024/01/23 07:06:56;;;;;;;28.17;5.93;;;;;;;4.35;100.00;102374.97;5048245;28;20435;-90
2024/01/23 07:09:21;;;;;;;27.70;6.20;;;;;;;4.33;100.00;102362.88;5047628;28;20093;-89
2024/01/23 07:11:49;;;;;;;22.80;5.97;;;;;;;4.34;100.00;102360.22;5048783;28;20120;-90
2024/01/23 07:14:14;;;;;;;28.63;5.78;;;;;;;4.35;100.00;102361.94;5027894;28;20127;-90
2024/01/23 07:16:42;;;;;;;22.80;5.57;;;;;;;4.32;100.00;102371.56;5050016;28;20555;-89
2024/01/23 07:19:11;;;;;;;30.33;6.10;;;;;;;4.30;100.00;102366.41;5040016;28;20124;-90
2024/01/23 07:21:37;;;;;;;29.35;6.18;;;;;;;4.31;100.00;102367.25;5046364;28;20037;-90
2024/01/23 07:24:03;;;;;;;28.73;6.22;;;;;;;4.30;100.00;102374.22;5029456;28;20036;-89
2024/01/23 07:26:28;;;;;;;29.55;6.55;;;;;;;4.29;100.00;102377.72;5043339;28;20422;-90
2024/01/23 07:28:53;;;;;;;27.50;6.35;;;;;;;4.29;100.00;102398.56;5042410;28;20100;-91
2024/01/23 07:31:19;;;;;;;31.70;6.35;;;;;;;4.27;100.00;102399.47;5046049;28;20440;-91
2024/01/23 07:33:46;;;;;;;30.05;6.90;;;;;;;4.24;100.00;102413.44;5046204;28;20054;-90
2024/01/23 07:36:14;;;;;;;26.30;5.85;;;;;;;4.20;100.00;102411.78;5053955;28;20028;-90
2024/01/23 07:38:42;;;;;;;26.17;6.22;;;;;;;4.22;100.00;102417.81;5042543;28;20478;-90
2024/01/23 07:41:10;;;;;;;29.05;6.63;;;;;;;4.20;100.00;102424.81;5043733;28;20481;-90
2024/01/23 07:43:36;;;;;;;23.58;6.32;;;;;;;4.22;100.00;102424.78;5040789;28;20051;-89
2024/01/23 07:46:04;;;;;;;37.35;6.25;;;;;;;4.19;100.00;102425.72;5051415;28;20099;-90
2024/01/23 07:48:30;;;;;;;30.92;6.55;;;;;;;4.18;100.00;102421.41;5022436;28;20029;-90
2024/01/23 07:50:55;;;;;;;26.00;6.13;;;;;;;4.12;100.00;102421.53;5039161;28;20123;-89
2024/01/23 07:53:21;;;;;;;28.60;5.97;;;;;;;4.10;100.00;102423.31;5053029;28;20044;-89
2024/01/23 07:55:52;;;;;;;29.60;6.13;;;;;;;4.08;100.00;102419.88;5052183;28;20096;-90
2024/01/23 07:58:17;;;;;;;24.30;5.95;;;;;;;4.03;100.00;102426.94;5052338;28;20033;-90
2024/01/23 08:00:43;;;;;;;28.42;6.50;;;;;;;3.99;100.00;102427.88;5049153;28;20504;-90
2024/01/23 08:03:09;;;;;;;32.78;6.30;;;;;;;3.95;100.00;102434.91;5049807;28;20039;-91
2024/01/23 08:05:40;;;;;;;25.70;6.45;;;;;;;3.94;100.00;102442.75;5051361;28;20024;-91
2024/01/23 08:08:08;;;;;;;24.70;5.82;;;;;;;3.92;100.00;102460.16;5034318;28;20035;-90
2024/01/23 08:10:49;;;;;;;28.75;5.88;;;;;;;3.88;100.00;102453.28;5046991;28;20056;-89
2024/01/23 08:13:20;;;;;;;23.05;5.70;;;;;;;3.89;100.00;102473.22;5051750;28;20486;-90
2024/01/23 08:15:47;;;;;;;24.85;6.03;;;;;;;3.89;100.00;102475.81;5052159;28;20027;-90
2024/01/23 08:18:13;;;;;;;22.83;6.00;;;;;;;3.87;100.00;102470.66;5051026;28;20500;-89
2024/01/23 08:20:39;;;;;;;28.80;6.47;;;;;;;3.89;100.00;102486.25;5034263;28;20116;-90
2024/01/23 08:23:04;;;;;;;29.40;6.53;;;;;;;3.91;100.00;102474.06;5050949;28;20104;-90
2024/01/23 08:25:30;;;;;;;31.08;7.35;;;;;;;3.94;100.00;102479.19;5052254;28;20029;-90
2024/01/23 08:27:57;;;;;;;30.52;6.60;;;;;;;3.95;100.00;102486.13;5049367;28;20496;-90
2024/01/23 08:30:25;;;;;;;25.83;5.65;;;;;;;3.96;100.00;102480.03;5042608;28;20037;-90
2024/01/23 08:32:50;;;;;;;28.98;6.18;;;;;;;3.98;100.00;102497.31;5031118;28;20040;-90
2024/01/23 08:35:16;;;;;;;24.65;5.95;;;;;;;4.04;100.00;102502.44;5033328;28;20072;-90
2024/01/23 08:37:53;;;;;;;28.83;6.32;;;;;;;4.06;100.00;102495.44;5032588;28;20029;-90
2024/01/23 08:40:28;;;;;;;23.45;5.72;;;;;;;4.10;100.00;102501.44;5037483;28;20029;-91
2024/01/23 08:42:56;;;;;;;29.75;6.35;;;;;;;4.17;100.00;102508.25;5048453;28;20104;-89
2024/01/23 08:45:21;;;;;;;27.35;5.93;;;;;;;4.20;100.00;102515.13;5052558;28;20503;-90
2024/01/23 08:47:50;;;;;;;28.38;5.93;;;;;;;4.24;100.00;102528.06;5048959;28;20056;-89
2024/01/23 08:50:15;;;;;;;29.88;6.35;;;;;;;4.29;100.00;102521.00;5029772;28;20452;-90
2024/01/23 08:52:41;;;;;;;22.00;6.50;;;;;;;4.36;100.00;102529.56;5032586;28;20038;-90
2024/01/23 08:55:10;;;;;;;26.77;6.60;;;;;;;4.38;100.00;102528.63;5028098;28;20033;-90
2024/01/23 08:57:35;;;;;;;28.23;6.32;;;;;;;4.42;100.00;102523.38;5031898;28;20029;-90
2024/01/23 09:00:04;;;;;;;29.13;6.53;;;;;;;4.49;100.00;102535.38;5032098;28;20040;-91
2024/01/23 09:02:30;;;;;;;24.20;6.40;;;;;;;4.54;100.00;102538.75;5035603;28;20048;-91
2024/01/23 09:04:58;;;;;;;23.92;5.95;;;;;;;4.55;100.00;102528.28;5029364;28;20029;-91
2024/01/23 09:07:24;;;;;;;26.83;6.22;;;;;;;4.61;100.00;102524.69;5014813;28;20030;-91
2024/01/23 09:09:49;;;;;;;26.33;6.32;;;;;;;4.64;100.00;102520.25;5022598;28;20447;-90
2024/01/23 09:12:21;;;;;;;31.35;6.55;;;;;;;4.72;100.00;102514.84;5029700;28;20072;-91
2024/01/23 09:14:57;;;;;;;23.67;6.28;;;;;;;4.79;100.00;102532.06;5029319;28;20076;-90
2024/01/23 09:17:23;;;;;;;24.83;6.53;;;;;;;4.83;100.00;102531.13;5032468;28;20526;-90
2024/01/23 09:19:49;;;;;;;28.20;6.18;;;;;;;4.91;100.00;102533.56;5030593;28;20033;-90
2024/01/23 09:22:16;;;;;;;27.75;5.88;;;;;;;4.95;100.00;102538.66;5032075;28;20084;-90
2024/01/23 09:24:42;;;;;;;30.17;6.72;;;;;;;5.00;100.00;102523.75;5031743;28;20032;-90
2024/01/23 09:27:07;;;;;;;26.58;5.88;;;;;;;5.06;100.00;102514.06;5029201;28;20030;-90
2024/01/23 09:29:33;;;;;;;27.77;5.75;;;;;;;5.12;100.00;102513.91;5030339;28;20067;-89
2024/01/23 09:31:59;;;;;;;34.40;7.25;;;;;;;5.16;100.00;102515.56;5029119;28;20021;-90
2024/01/23 09:34:25;;;;;;;27.02;6.45;;;;;;;5.23;100.00;102514.53;5030204;28;20040;-90
2024/01/23 09:36:50;;;;;;;32.28;6.75;;;;;;;5.31;100.00;102517.81;5032381;28;20022;-90
2024/01/23 09:39:16;;;;;;;27.15;6.20;;;;;;;5.36;100.00;102521.16;5045545;28;20518;-90
2024/01/23 09:42:02;;;;;;;24.52;6.25;;;;;;;5.45;100.00;102515.69;5031901;28;20378;-90
2024/01/23 09:44:27;;;;;;;26.25;5.85;;;;;;;5.51;100.00;102515.53;5042230;28;20033;-91
2024/01/23 09:46:57;;;;;;;26.20;6.43;;;;;;;5.61;100.00;102519.63;5029307;28;20389;-90
2024/01/23 09:49:24;;;;;;;25.15;6.72;;;;;;;5.69;100.00;102524.66;5031034;28;20026;-90
2024/01/23 09:51:54;;;;;;;22.42;6.10;;;;;;;5.72;100.00;102515.88;5055545;28;20135;-91
2024/01/23 09:54:23;;;;;;;26.92;5.88;;;;;;;5.77;100.00;102506.16;5066910;28;20025;-90
2024/01/23 09:56:49;;;;;;;25.42;5.97;;;;;;;5.83;100.00;102511.22;5029018;28;20113;-90
2024/01/23 09:59:15;;;;;;;27.20;6.75;;;;;;;5.90;100.00;102511.03;5030974;28;20461;-90
2024/01/23 10:01:40;;;;;;;28.90;6.70;;;;;;;5.94;100.00;102514.41;5046993;28;20024;-89
2024/01/23 10:04:06;;;;;;;30.42;6.57;;;;;;;5.99;100.00;102517.75;5049367;28;20440;-91
2024/01/23 10:06:35;;;;;;;24.75;6.05;;;;;;;6.07;100.00;102521.03;5050341;28;20032;-89
2024/01/23 10:09:00;;;;;;;44.13;20.98;;;;;;;6.10;100.00;102518.31;5040621;28;20029;-90
2024/01/23 10:11:33;;;;;;;38.00;10.60;;;;;;;6.17;100.00;102527.69;5052205;28;20031;-89
2024/01/23 10:14:04;;;;;;;30.63;6.63;;;;;;;6.21;100.00;102533.69;5069900;28;20024;-90
2024/01/23 10:16:30;;;;;;;24.92;5.85;;;;;;;6.21;100.00;102534.53;5063001;28;20021;-90
2024/01/23 10:18:55;;;;;;;32.90;6.65;;;;;;;6.23;100.00;102545.81;5023286;28;20039;-88
2024/01/23 10:21:26;;;;;;;31.25;6.43;;;;;;;6.30;100.00;102549.09;5047339;28;20025;-91
2024/01/23 10:23:52;;;;;;;29.80;6.65;;;;;;;6.32;100.00;102549.06;5030512;28;20040;-89
2024/01/23 10:26:18;;;;;;;26.05;5.97;;;;;;;6.34;100.00;102535.03;5050456;28;20473;-89
2024/01/23 10:28:45;;;;;;;31.30;7.00;;;;;;;6.38;100.00;102533.19;5048452;28;20083;-88
2024/01/23 10:31:14;;;;;;;31.63;6.72;;;;;;;6.48;100.00;102526.81;5048876;28;20039;-86
2024/01/23 10:33:40;;;;;;;25.50;6.43;;;;;;;6.54;100.00;102526.63;5031174;28;20036;-87
2024/01/23 10:36:08;;;;;;;28.40;6.32;;;;;;;6.56;100.00;102524.81;5048786;28;20087;-85
2024/01/23 10:38:37;;;;;;;22.77;6.15;;;;;;;6.59;100.00;102529.94;5038563;28;20444;-87
2024/01/23 10:41:05;;;;;;;26.08;6.22;;;;;;;6.64;100.00;102528.03;5041902;28;20094;-87
2024/01/23 10:43:33;;;;;;;30.50;7.03;;;;;;;6.71;100.00;102534.78;5061368;28;20050;-87
2024/01/23 10:46:02;;;;;;;27.65;6.78;;;;;;;6.76;100.00;102530.28;5069463;28;20020;-85
2024/01/23 10:48:29;;;;;;;28.55;6.63;;;;;;;6.84;100.00;102536.16;5049427;28;20439;-88
2024/01/23 10:51:16;;;;;;;27.05;6.22;;;;;;;6.91;100.00;102536.81;5028893;28;20037;-89
2024/01/23 10:54:08;;;;;;;27.13;6.38;;;;;;;6.99;100.00;102533.94;5048928;28;20505;-89
2024/01/23 10:56:42;;;;;;;27.30;6.22;;;;;;;6.96;100.00;102523.56;5023995;28;20045;-89
2024/01/23 10:59:17;;;;;;;24.40;5.93;;;;;;;7.00;100.00;102519.94;5048522;28;20032;-90
2024/01/23 11:01:45;;;;;;;26.73;6.78;;;;;;;7.12;100.00;102515.16;5031989;28;20082;-90
2024/01/23 11:04:15;;;;;;;33.10;7.25;;;;;;;7.27;100.00;102515.59;5047274;28;20032;-90
2024/01/23 11:06:52;;;;;;;29.73;6.40;;;;;;;7.34;100.00;102514.47;5028307;28;20458;-89
2024/01/23 11:09:35;;;;;;;26.02;5.85;;;;;;;7.43;100.00;102509.78;5012016;28;20030;-89
2024/01/23 11:12:25;;;;;;;26.98;6.57;;;;;;;7.43;100.00;102501.91;5044352;28;20393;-89
2024/01/23 11:15:00;;;;;;;24.83;6.95;;;;;;;7.39;100.00;102492.44;5030622;28;20033;-88
2024/01/23 11:17:31;;;;;;;25.90;6.57;;;;;;;7.37;100.00;102473.31;5061462;28;20481;-88